sensor_id;sensor_type;location;lat;lon;timestamp;temperature;humidity
7192;DHT22;3637;51.494;11.958;2022-08-19T00:02:22;20.90;99.90
7192;DHT22;3637;51.494;11.958;2022-08-19T00:05:24;20.80;99.90
7192;DHT22;3637;51.494;11.958;2022-08-19T00:08:26;20.70;99.90
7192;DHT22;3637;51.494;11.958;2022-08-19T00:11:29;20.80;99.90
7192;DHT22;3637;51.494;11.958;2022-08-19T00:14:31;20.90;99.90
7192;DHT22;3637;51.494;11.958;2022-08-19T00:17:34;20.80;99.90
7192;DHT22;3637;51.494;11.958;2022-08-19T00:20:36;20.80;99.90
7192;DHT22;3637;51.494;11.958;2022-08-19T00:23:38;20.80;99.90
7192;DHT22;3637;51.494;11.958;2022-08-19T00:26:41;20.80;99.90
7192;DHT22;3637;51.494;11.958;2022-08-19T00:29:43;20.80;99.90
7192;DHT22;3637;51.494;11.958;2022-08-19T00:32:46;20.70;99.90
7192;DHT22;3637;51.494;11.958;2022-08-19T00:35:49;20.70;99.90
7192;DHT22;3637;51.494;11.958;2022-08-19T00:38:50;20.70;99.90
7192;DHT22;3637;51.494;11.958;2022-08-19T00:41:53;20.70;99.90
7192;DHT22;3637;51.494;11.958;2022-08-19T00:44:55;20.80;99.90
7192;DHT22;3637;51.494;11.958;2022-08-19T00:47:58;20.80;99.90
7192;DHT22;3637;51.494;11.958;2022-08-19T00:51:04;20.70;99.90
7192;DHT22;3637;51.494;11.958;2022-08-19T00:54:07;20.80;99.90
7192;DHT22;3637;51.494;11.958;2022-08-19T00:57:13;20.70;99.90
7192;DHT22;3637;51.494;11.958;2022-08-19T01:00:18;20.70;99.90
7192;DHT22;3637;51.494;11.958;2022-08-19T01:03:22;20.70;99.90
7192;DHT22;3637;51.494;11.958;2022-08-19T01:06:24;20.70;99.90
7192;DHT22;3637;51.494;11.958;2022-08-19T01:09:26;20.80;99.90
7192;DHT22;3637;51.494;11.958;2022-08-19T01:12:28;20.80;99.90
7192;DHT22;3637;51.494;11.958;2022-08-19T01:15:32;20.70;99.90
7192;DHT22;3637;51.494;11.958;2022-08-19T01:18:39;20.70;99.90
7192;DHT22;3637;51.494;11.958;2022-08-19T01:21:45;20.70;99.90
7192;DHT22;3637;51.494;11.958;2022-08-19T01:24:51;20.80;99.90
7192;DHT22;3637;51.494;11.958;2022-08-19T01:27:53;20.70;99.90
7192;DHT22;3637;51.494;11.958;2022-08-19T01:30:56;20.70;99.90
7192;DHT22;3637;51.494;11.958;2022-08-19T01:33:58;20.60;99.90
7192;DHT22;3637;51.494;11.958;2022-08-19T01:37:00;20.50;99.90
7192;DHT22;3637;51.494;11.958;2022-08-19T01:40:10;20.50;99.90
7192;DHT22;3637;51.494;11.958;2022-08-19T01:43:13;20.50;99.90
7192;DHT22;3637;51.494;11.958;2022-08-19T01:46:14;20.40;99.90
7192;DHT22;3637;51.494;11.958;2022-08-19T01:49:18;20.40;99.90
7192;DHT22;3637;51.494;11.958;2022-08-19T01:52:20;20.40;99.90
7192;DHT22;3637;51.494;11.958;2022-08-19T01:55:23;20.40;99.90
7192;DHT22;3637;51.494;11.958;2022-08-19T01:58:29;20.40;99.90
7192;DHT22;3637;51.494;11.958;2022-08-19T02:01:32;20.40;99.90
7192;DHT22;3637;51.494;11.958;2022-08-19T02:04:35;20.40;99.90
7192;DHT22;3637;51.494;11.958;2022-08-19T02:07:39;20.30;99.90
7192;DHT22;3637;51.494;11.958;2022-08-19T02:10:43;20.30;99.90
7192;DHT22;3637;51.494;11.958;2022-08-19T02:13:45;20.30;99.90
7192;DHT22;3637;51.494;11.958;2022-08-19T02:16:47;20.30;99.90
7192;DHT22;3637;51.494;11.958;2022-08-19T02:19:48;20.30;99.90
7192;DHT22;3637;51.494;11.958;2022-08-19T02:22:50;20.40;99.90
7192;DHT22;3637;51.494;11.958;2022-08-19T02:25:54;20.40;99.90
7192;DHT22;3637;51.494;11.958;2022-08-19T02:28:56;20.50;99.90
7192;DHT22;3637;51.494;11.958;2022-08-19T02:31:58;20.50;99.90
7192;DHT22;3637;51.494;11.958;2022-08-19T02:35:00;20.40;99.90
7192;DHT22;3637;51.494;11.958;2022-08-19T02:38:02;20.40;99.90
7192;DHT22;3637;51.494;11.958;2022-08-19T02:41:25;20.40;99.90
7192;DHT22;3637;51.494;11.958;2022-08-19T02:44:27;20.40;99.90
7192;DHT22;3637;51.494;11.958;2022-08-19T02:47:30;20.40;99.90
7192;DHT22;3637;51.494;11.958;2022-08-19T02:50:32;20.40;99.90
7192;DHT22;3637;51.494;11.958;2022-08-19T02:53:34;20.40;99.90
7192;DHT22;3637;51.494;11.958;2022-08-19T02:56:39;20.40;99.90
7192;DHT22;3637;51.494;11.958;2022-08-19T02:59:42;20.40;99.90
7192;DHT22;3637;51.494;11.958;2022-08-19T03:02:44;20.40;99.90
7192;DHT22;3637;51.494;11.958;2022-08-19T03:05:47;20.40;99.90
7192;DHT22;3637;51.494;11.958;2022-08-19T03:08:50;20.40;99.90
7192;DHT22;3637;51.494;11.958;2022-08-19T03:11:54;20.40;99.90
7192;DHT22;3637;51.494;11.958;2022-08-19T03:14:55;20.40;99.90
7192;DHT22;3637;51.494;11.958;2022-08-19T03:17:57;20.50;99.90
7192;DHT22;3637;51.494;11.958;2022-08-19T03:20:59;20.50;99.90
7192;DHT22;3637;51.494;11.958;2022-08-19T03:24:03;20.50;99.90
7192;DHT22;3637;51.494;11.958;2022-08-19T03:27:07;20.50;99.90
7192;DHT22;3637;51.494;11.958;2022-08-19T03:30:11;20.40;99.90
7192;DHT22;3637;51.494;11.958;2022-08-19T03:33:13;20.50;99.90
7192;DHT22;3637;51.494;11.958;2022-08-19T03:36:18;20.60;99.90
7192;DHT22;3637;51.494;11.958;2022-08-19T03:39:21;20.50;99.90
7192;DHT22;3637;51.494;11.958;2022-08-19T03:42:24;20.60;99.90
7192;DHT22;3637;51.494;11.958;2022-08-19T03:45:27;20.50;99.90
7192;DHT22;3637;51.494;11.958;2022-08-19T03:48:30;20.60;99.90
7192;DHT22;3637;51.494;11.958;2022-08-19T03:51:33;20.60;99.90
7192;DHT22;3637;51.494;11.958;2022-08-19T03:54:35;20.60;99.90
7192;DHT22;3637;51.494;11.958;2022-08-19T03:57:39;20.60;99.90
7192;DHT22;3637;51.494;11.958;2022-08-19T04:00:42;20.70;99.90
7192;DHT22;3637;51.494;11.958;2022-08-19T04:03:45;20.60;99.90
7192;DHT22;3637;51.494;11.958;2022-08-19T04:06:47;20.70;99.90
7192;DHT22;3637;51.494;11.958;2022-08-19T04:09:49;20.60;99.90
7192;DHT22;3637;51.494;11.958;2022-08-19T04:12:53;20.60;99.90
7192;DHT22;3637;51.494;11.958;2022-08-19T04:15:55;20.50;99.90
7192;DHT22;3637;51.494;11.958;2022-08-19T04:19:01;20.60;99.90
7192;DHT22;3637;51.494;11.958;2022-08-19T04:22:04;20.60;99.90
7192;DHT22;3637;51.494;11.958;2022-08-19T04:25:06;20.60;99.90
7192;DHT22;3637;51.494;11.958;2022-08-19T04:28:11;20.60;99.90
7192;DHT22;3637;51.494;11.958;2022-08-19T04:31:14;20.60;99.90
7192;DHT22;3637;51.494;11.958;2022-08-19T04:34:19;20.60;99.90
7192;DHT22;3637;51.494;11.958;2022-08-19T04:37:22;20.60;99.90
7192;DHT22;3637;51.494;11.958;2022-08-19T04:40:26;20.50;99.90
7192;DHT22;3637;51.494;11.958;2022-08-19T04:43:47;20.50;99.90
7192;DHT22;3637;51.494;11.958;2022-08-19T04:46:51;20.50;99.90
7192;DHT22;3637;51.494;11.958;2022-08-19T04:49:53;20.50;99.90
7192;DHT22;3637;51.494;11.958;2022-08-19T04:52:55;20.50;99.90
7192;DHT22;3637;51.494;11.958;2022-08-19T04:55:58;20.40;99.90
7192;DHT22;3637;51.494;11.958;2022-08-19T04:59:02;20.40;99.90
7192;DHT22;3637;51.494;11.958;2022-08-19T05:02:04;20.50;99.90
7192;DHT22;3637;51.494;11.958;2022-08-19T05:05:08;20.50;99.90
7192;DHT22;3637;51.494;11.958;2022-08-19T05:08:10;20.40;99.90
7192;DHT22;3637;51.494;11.958;2022-08-19T05:11:17;20.50;99.90
7192;DHT22;3637;51.494;11.958;2022-08-19T05:14:21;20.40;99.90
7192;DHT22;3637;51.494;11.958;2022-08-19T05:17:23;20.50;99.90
7192;DHT22;3637;51.494;11.958;2022-08-19T05:20:25;20.40;99.90
7192;DHT22;3637;51.494;11.958;2022-08-19T05:23:45;20.40;99.90
7192;DHT22;3637;51.494;11.958;2022-08-19T05:26:48;20.50;99.90
7192;DHT22;3637;51.494;11.958;2022-08-19T05:29:51;20.50;99.90
7192;DHT22;3637;51.494;11.958;2022-08-19T05:32:53;20.40;99.90
7192;DHT22;3637;51.494;11.958;2022-08-19T05:35:56;20.40;99.90
7192;DHT22;3637;51.494;11.958;2022-08-19T05:38:59;20.50;99.90
7192;DHT22;3637;51.494;11.958;2022-08-19T05:42:03;20.40;99.90
7192;DHT22;3637;51.494;11.958;2022-08-19T05:45:08;20.40;99.90
7192;DHT22;3637;51.494;11.958;2022-08-19T05:48:11;20.40;99.90
7192;DHT22;3637;51.494;11.958;2022-08-19T05:51:13;20.40;99.90
7192;DHT22;3637;51.494;11.958;2022-08-19T05:54:17;20.40;99.90
7192;DHT22;3637;51.494;11.958;2022-08-19T05:57:19;20.40;99.90
7192;DHT22;3637;51.494;11.958;2022-08-19T06:00:22;20.30;99.90
7192;DHT22;3637;51.494;11.958;2022-08-19T06:03:24;20.40;99.90
7192;DHT22;3637;51.494;11.958;2022-08-19T06:06:27;20.30;99.90
7192;DHT22;3637;51.494;11.958;2022-08-19T06:09:29;20.30;99.90
7192;DHT22;3637;51.494;11.958;2022-08-19T06:12:31;20.30;99.90
7192;DHT22;3637;51.494;11.958;2022-08-19T06:15:36;20.40;99.90
7192;DHT22;3637;51.494;11.958;2022-08-19T06:18:38;20.30;99.90
7192;DHT22;3637;51.494;11.958;2022-08-19T06:21:42;20.30;99.90
7192;DHT22;3637;51.494;11.958;2022-08-19T06:24:44;20.30;99.90
7192;DHT22;3637;51.494;11.958;2022-08-19T06:27:46;20.40;99.90
7192;DHT22;3637;51.494;11.958;2022-08-19T06:30:49;20.40;99.90
7192;DHT22;3637;51.494;11.958;2022-08-19T06:33:51;20.50;99.90
7192;DHT22;3637;51.494;11.958;2022-08-19T06:36:55;20.40;99.90
7192;DHT22;3637;51.494;11.958;2022-08-19T06:39:57;20.30;99.90
7192;DHT22;3637;51.494;11.958;2022-08-19T06:42:59;20.30;99.90
7192;DHT22;3637;51.494;11.958;2022-08-19T06:46:04;20.40;99.90
7192;DHT22;3637;51.494;11.958;2022-08-19T06:49:11;20.40;99.90
7192;DHT22;3637;51.494;11.958;2022-08-19T06:52:14;20.40;99.90
7192;DHT22;3637;51.494;11.958;2022-08-19T06:55:16;20.30;99.90
7192;DHT22;3637;51.494;11.958;2022-08-19T06:58:18;20.30;99.90
7192;DHT22;3637;51.494;11.958;2022-08-19T07:01:21;20.30;99.90
7192;DHT22;3637;51.494;11.958;2022-08-19T07:04:24;20.40;99.90
7192;DHT22;3637;51.494;11.958;2022-08-19T07:07:27;20.40;99.90
7192;DHT22;3637;51.494;11.958;2022-08-19T07:10:28;20.50;99.90
7192;DHT22;3637;51.494;11.958;2022-08-19T07:13:33;20.50;99.90
7192;DHT22;3637;51.494;11.958;2022-08-19T07:16:38;20.50;99.90
7192;DHT22;3637;51.494;11.958;2022-08-19T07:19:40;20.60;99.90
7192;DHT22;3637;51.494;11.958;2022-08-19T07:22:42;20.60;99.90
7192;DHT22;3637;51.494;11.958;2022-08-19T07:25:45;20.50;99.90
7192;DHT22;3637;51.494;11.958;2022-08-19T07:28:48;20.50;99.90
7192;DHT22;3637;51.494;11.958;2022-08-19T07:31:52;20.60;99.90
7192;DHT22;3637;51.494;11.958;2022-08-19T07:34:56;20.60;99.90
7192;DHT22;3637;51.494;11.958;2022-08-19T07:37:58;20.50;99.90
7192;DHT22;3637;51.494;11.958;2022-08-19T07:41:03;20.50;99.90
7192;DHT22;3637;51.494;11.958;2022-08-19T07:44:06;20.50;99.90
7192;DHT22;3637;51.494;11.958;2022-08-19T07:47:10;20.50;99.90
7192;DHT22;3637;51.494;11.958;2022-08-19T07:50:13;20.40;99.90
7192;DHT22;3637;51.494;11.958;2022-08-19T07:53:15;20.40;99.90
7192;DHT22;3637;51.494;11.958;2022-08-19T07:56:18;20.40;99.90
7192;DHT22;3637;51.494;11.958;2022-08-19T07:59:21;20.40;99.90
7192;DHT22;3637;51.494;11.958;2022-08-19T08:02:24;20.40;99.90
7192;DHT22;3637;51.494;11.958;2022-08-19T08:05:26;20.40;99.90
7192;DHT22;3637;51.494;11.958;2022-08-19T08:08:45;20.40;99.90
7192;DHT22;3637;51.494;11.958;2022-08-19T08:12:06;20.40;99.90
7192;DHT22;3637;51.494;11.958;2022-08-19T08:15:12;20.40;99.90
7192;DHT22;3637;51.494;11.958;2022-08-19T08:18:18;20.30;99.90
7192;DHT22;3637;51.494;11.958;2022-08-19T08:21:21;20.40;99.90
7192;DHT22;3637;51.494;11.958;2022-08-19T08:24:23;20.30;99.90
7192;DHT22;3637;51.494;11.958;2022-08-19T08:27:25;20.30;99.90
7192;DHT22;3637;51.494;11.958;2022-08-19T08:30:30;20.30;99.90
7192;DHT22;3637;51.494;11.958;2022-08-19T08:33:34;20.40;99.90
7192;DHT22;3637;51.494;11.958;2022-08-19T08:36:37;20.40;99.90
7192;DHT22;3637;51.494;11.958;2022-08-19T08:39:41;20.40;99.90
7192;DHT22;3637;51.494;11.958;2022-08-19T08:42:50;20.40;99.90
7192;DHT22;3637;51.494;11.958;2022-08-19T08:46:00;20.40;99.90
7192;DHT22;3637;51.494;11.958;2022-08-19T08:49:11;20.40;99.90
7192;DHT22;3637;51.494;11.958;2022-08-19T08:52:22;20.40;99.90
7192;DHT22;3637;51.494;11.958;2022-08-19T08:55:27;20.40;99.90
7192;DHT22;3637;51.494;11.958;2022-08-19T08:58:36;20.40;99.90
7192;DHT22;3637;51.494;11.958;2022-08-19T09:01:42;20.40;99.90
7192;DHT22;3637;51.494;11.958;2022-08-19T09:04:46;20.40;99.90
7192;DHT22;3637;51.494;11.958;2022-08-19T09:07:54;20.40;99.90
7192;DHT22;3637;51.494;11.958;2022-08-19T09:11:00;20.40;99.90
7192;DHT22;3637;51.494;11.958;2022-08-19T09:14:11;20.40;99.90
7192;DHT22;3637;51.494;11.958;2022-08-19T09:17:15;20.30;99.90
7192;DHT22;3637;51.494;11.958;2022-08-19T09:20:21;20.30;99.90
7192;DHT22;3637;51.494;11.958;2022-08-19T09:23:23;20.20;99.90
7192;DHT22;3637;51.494;11.958;2022-08-19T09:26:26;20.30;99.90
7192;DHT22;3637;51.494;11.958;2022-08-19T09:29:28;20.30;99.90
7192;DHT22;3637;51.494;11.958;2022-08-19T09:32:31;20.30;99.90
7192;DHT22;3637;51.494;11.958;2022-08-19T09:35:34;20.40;99.90
7192;DHT22;3637;51.494;11.958;2022-08-19T09:38:37;20.30;99.90
7192;DHT22;3637;51.494;11.958;2022-08-19T09:41:41;20.20;99.90
7192;DHT22;3637;51.494;11.958;2022-08-19T09:44:44;20.10;99.90
7192;DHT22;3637;51.494;11.958;2022-08-19T09:47:46;20.20;99.90
7192;DHT22;3637;51.494;11.958;2022-08-19T09:50:49;20.20;99.90
7192;DHT22;3637;51.494;11.958;2022-08-19T09:53:52;20.10;99.90
7192;DHT22;3637;51.494;11.958;2022-08-19T09:56:55;20.20;99.90
7192;DHT22;3637;51.494;11.958;2022-08-19T10:00:01;20.20;99.90
7192;DHT22;3637;51.494;11.958;2022-08-19T10:03:02;20.20;99.90
7192;DHT22;3637;51.494;11.958;2022-08-19T10:06:06;20.20;99.90
7192;DHT22;3637;51.494;11.958;2022-08-19T10:09:10;20.10;99.90
7192;DHT22;3637;51.494;11.958;2022-08-19T10:12:12;20.20;99.90
7192;DHT22;3637;51.494;11.958;2022-08-19T10:15:15;20.20;99.90
7192;DHT22;3637;51.494;11.958;2022-08-19T10:18:23;20.20;99.90
7192;DHT22;3637;51.494;11.958;2022-08-19T10:21:29;20.30;99.90
7192;DHT22;3637;51.494;11.958;2022-08-19T10:24:31;20.30;99.90
7192;DHT22;3637;51.494;11.958;2022-08-19T10:27:34;20.30;99.40
7192;DHT22;3637;51.494;11.958;2022-08-19T10:30:36;20.40;99.30
7192;DHT22;3637;51.494;11.958;2022-08-19T10:33:38;20.50;99.00
7192;DHT22;3637;51.494;11.958;2022-08-19T10:36:42;20.40;98.60
7192;DHT22;3637;51.494;11.958;2022-08-19T10:39:46;20.40;98.60
7192;DHT22;3637;51.494;11.958;2022-08-19T10:42:48;20.40;98.00
7192;DHT22;3637;51.494;11.958;2022-08-19T10:45:52;20.40;98.20
7192;DHT22;3637;51.494;11.958;2022-08-19T10:48:56;20.50;98.10
7192;DHT22;3637;51.494;11.958;2022-08-19T10:51:59;20.60;97.50
7192;DHT22;3637;51.494;11.958;2022-08-19T10:55:21;20.70;97.50
7192;DHT22;3637;51.494;11.958;2022-08-19T10:58:40;20.80;97.40
7192;DHT22;3637;51.494;11.958;2022-08-19T11:01:45;20.80;96.80
7192;DHT22;3637;51.494;11.958;2022-08-19T11:04:47;20.80;96.60
7192;DHT22;3637;51.494;11.958;2022-08-19T11:07:51;20.80;96.60
7192;DHT22;3637;51.494;11.958;2022-08-19T11:10:54;21.00;96.40
7192;DHT22;3637;51.494;11.958;2022-08-19T11:14:01;21.10;96.00
7192;DHT22;3637;51.494;11.958;2022-08-19T11:17:03;21.40;95.20
7192;DHT22;3637;51.494;11.958;2022-08-19T11:20:06;21.40;94.80
7192;DHT22;3637;51.494;11.958;2022-08-19T11:23:10;21.50;94.50
7192;DHT22;3637;51.494;11.958;2022-08-19T11:26:13;21.50;95.00
7192;DHT22;3637;51.494;11.958;2022-08-19T11:29:16;21.60;94.70
7192;DHT22;3637;51.494;11.958;2022-08-19T11:32:19;21.60;94.20
7192;DHT22;3637;51.494;11.958;2022-08-19T11:35:21;21.70;94.70
7192;DHT22;3637;51.494;11.958;2022-08-19T11:38:25;21.80;93.90
7192;DHT22;3637;51.494;11.958;2022-08-19T11:41:27;21.80;93.80
7192;DHT22;3637;51.494;11.958;2022-08-19T11:44:29;21.80;93.50
7192;DHT22;3637;51.494;11.958;2022-08-19T11:47:31;21.80;94.00
7192;DHT22;3637;51.494;11.958;2022-08-19T11:50:33;22.00;93.90
7192;DHT22;3637;51.494;11.958;2022-08-19T11:53:37;22.10;93.50
7192;DHT22;3637;51.494;11.958;2022-08-19T11:56:40;22.10;92.90
7192;DHT22;3637;51.494;11.958;2022-08-19T11:59:47;22.20;93.00
7192;DHT22;3637;51.494;11.958;2022-08-19T12:02:48;22.20;93.20
7192;DHT22;3637;51.494;11.958;2022-08-19T12:05:51;22.30;93.10
7192;DHT22;3637;51.494;11.958;2022-08-19T12:08:55;22.20;93.10
7192;DHT22;3637;51.494;11.958;2022-08-19T12:11:57;22.10;93.10
7192;DHT22;3637;51.494;11.958;2022-08-19T12:14:59;22.10;92.90
7192;DHT22;3637;51.494;11.958;2022-08-19T12:18:01;22.10;93.60
7192;DHT22;3637;51.494;11.958;2022-08-19T12:21:04;22.20;92.90
7192;DHT22;3637;51.494;11.958;2022-08-19T12:24:07;22.20;93.00
7192;DHT22;3637;51.494;11.958;2022-08-19T12:27:09;22.20;92.90
7192;DHT22;3637;51.494;11.958;2022-08-19T12:30:12;22.20;93.20
7192;DHT22;3637;51.494;11.958;2022-08-19T12:33:14;22.10;93.30
7192;DHT22;3637;51.494;11.958;2022-08-19T12:36:16;22.20;93.20
7192;DHT22;3637;51.494;11.958;2022-08-19T12:39:20;22.20;93.10
7192;DHT22;3637;51.494;11.958;2022-08-19T12:42:22;22.30;93.00
7192;DHT22;3637;51.494;11.958;2022-08-19T12:45:24;22.20;93.00
7192;DHT22;3637;51.494;11.958;2022-08-19T12:48:26;22.40;92.90
7192;DHT22;3637;51.494;11.958;2022-08-19T12:51:29;22.40;92.70
7192;DHT22;3637;51.494;11.958;2022-08-19T12:54:34;22.50;92.30
7192;DHT22;3637;51.494;11.958;2022-08-19T12:57:36;22.40;92.10
7192;DHT22;3637;51.494;11.958;2022-08-19T13:00:41;22.30;92.50
7192;DHT22;3637;51.494;11.958;2022-08-19T13:03:45;22.40;92.70
7192;DHT22;3637;51.494;11.958;2022-08-19T13:06:47;22.50;92.70
7192;DHT22;3637;51.494;11.958;2022-08-19T13:09:52;22.60;92.60
7192;DHT22;3637;51.494;11.958;2022-08-19T13:12:55;22.60;91.90
7192;DHT22;3637;51.494;11.958;2022-08-19T13:16:00;22.40;92.00
7192;DHT22;3637;51.494;11.958;2022-08-19T13:19:04;22.40;92.20
7192;DHT22;3637;51.494;11.958;2022-08-19T13:22:06;22.30;92.60
7192;DHT22;3637;51.494;11.958;2022-08-19T13:25:11;22.30;92.60
7192;DHT22;3637;51.494;11.958;2022-08-19T13:28:13;22.40;92.70
7192;DHT22;3637;51.494;11.958;2022-08-19T13:31:16;22.40;92.50
7192;DHT22;3637;51.494;11.958;2022-08-19T13:34:35;22.50;92.90
7192;DHT22;3637;51.494;11.958;2022-08-19T13:37:37;22.50;92.60
7192;DHT22;3637;51.494;11.958;2022-08-19T13:40:48;22.40;92.70
7192;DHT22;3637;51.494;11.958;2022-08-19T13:43:50;22.40;92.60
7192;DHT22;3637;51.494;11.958;2022-08-19T13:46:52;22.40;92.60
7192;DHT22;3637;51.494;11.958;2022-08-19T13:49:54;22.50;92.70
7192;DHT22;3637;51.494;11.958;2022-08-19T13:52:58;22.50;92.00
7192;DHT22;3637;51.494;11.958;2022-08-19T13:56:05;22.40;92.10
7192;DHT22;3637;51.494;11.958;2022-08-19T13:59:07;22.30;91.80
7192;DHT22;3637;51.494;11.958;2022-08-19T14:02:08;22.30;92.10
7192;DHT22;3637;51.494;11.958;2022-08-19T14:05:13;22.40;92.10
7192;DHT22;3637;51.494;11.958;2022-08-19T14:08:15;22.40;92.00
7192;DHT22;3637;51.494;11.958;2022-08-19T14:11:19;22.40;91.90
7192;DHT22;3637;51.494;11.958;2022-08-19T14:14:23;22.40;91.70
7192;DHT22;3637;51.494;11.958;2022-08-19T14:17:25;22.40;92.20
7192;DHT22;3637;51.494;11.958;2022-08-19T14:20:27;22.40;92.30
7192;DHT22;3637;51.494;11.958;2022-08-19T14:23:29;22.40;92.00
7192;DHT22;3637;51.494;11.958;2022-08-19T14:26:32;22.40;92.00
7192;DHT22;3637;51.494;11.958;2022-08-19T14:29:34;22.30;92.10
7192;DHT22;3637;51.494;11.958;2022-08-19T14:32:36;22.30;91.90
7192;DHT22;3637;51.494;11.958;2022-08-19T14:35:38;22.20;92.10
7192;DHT22;3637;51.494;11.958;2022-08-19T14:38:45;22.20;91.90
7192;DHT22;3637;51.494;11.958;2022-08-19T14:41:48;22.20;92.30
7192;DHT22;3637;51.494;11.958;2022-08-19T14:44:51;22.20;92.30
7192;DHT22;3637;51.494;11.958;2022-08-19T14:47:52;22.20;92.20
7192;DHT22;3637;51.494;11.958;2022-08-19T14:50:56;22.20;92.20
7192;DHT22;3637;51.494;11.958;2022-08-19T14:53:58;22.20;92.00
7192;DHT22;3637;51.494;11.958;2022-08-19T14:57:01;22.10;92.10
7192;DHT22;3637;51.494;11.958;2022-08-19T15:00:04;22.10;92.40
7192;DHT22;3637;51.494;11.958;2022-08-19T15:03:06;22.10;92.20
7192;DHT22;3637;51.494;11.958;2022-08-19T15:06:09;22.10;92.40
7192;DHT22;3637;51.494;11.958;2022-08-19T15:09:11;22.20;92.40
7192;DHT22;3637;51.494;11.958;2022-08-19T15:12:14;22.20;92.50
7192;DHT22;3637;51.494;11.958;2022-08-19T15:15:16;22.10;92.50
7192;DHT22;3637;51.494;11.958;2022-08-19T15:18:19;22.00;92.50
7192;DHT22;3637;51.494;11.958;2022-08-19T15:21:23;22.00;92.40
7192;DHT22;3637;51.494;11.958;2022-08-19T15:24:25;22.00;92.60
7192;DHT22;3637;51.494;11.958;2022-08-19T15:27:28;21.90;92.50
7192;DHT22;3637;51.494;11.958;2022-08-19T15:30:30;22.00;92.50
7192;DHT22;3637;51.494;11.958;2022-08-19T15:33:34;21.90;92.40
7192;DHT22;3637;51.494;11.958;2022-08-19T15:36:37;22.00;92.30
7192;DHT22;3637;51.494;11.958;2022-08-19T15:39:39;21.90;92.10
7192;DHT22;3637;51.494;11.958;2022-08-19T15:42:42;22.00;92.10
7192;DHT22;3637;51.494;11.958;2022-08-19T15:45:44;22.10;91.90
7192;DHT22;3637;51.494;11.958;2022-08-19T15:48:46;22.10;91.60
7192;DHT22;3637;51.494;11.958;2022-08-19T15:51:49;22.00;91.90
7192;DHT22;3637;51.494;11.958;2022-08-19T15:54:52;22.10;92.00
7192;DHT22;3637;51.494;11.958;2022-08-19T15:57:55;22.20;91.60
7192;DHT22;3637;51.494;11.958;2022-08-19T16:01:15;22.20;91.60
7192;DHT22;3637;51.494;11.958;2022-08-19T16:04:34;22.20;91.30
7192;DHT22;3637;51.494;11.958;2022-08-19T16:07:53;22.30;91.10
7192;DHT22;3637;51.494;11.958;2022-08-19T16:10:55;22.20;91.20
7192;DHT22;3637;51.494;11.958;2022-08-19T16:13:59;22.30;91.10
7192;DHT22;3637;51.494;11.958;2022-08-19T16:17:02;22.20;90.90
7192;DHT22;3637;51.494;11.958;2022-08-19T16:20:05;22.30;90.80
7192;DHT22;3637;51.494;11.958;2022-08-19T16:23:08;22.20;90.90
7192;DHT22;3637;51.494;11.958;2022-08-19T16:26:10;22.20;90.90
7192;DHT22;3637;51.494;11.958;2022-08-19T16:29:16;22.20;90.90
7192;DHT22;3637;51.494;11.958;2022-08-19T16:32:19;22.30;90.80
7192;DHT22;3637;51.494;11.958;2022-08-19T16:35:21;22.20;91.00
7192;DHT22;3637;51.494;11.958;2022-08-19T16:38:23;22.20;91.00
7192;DHT22;3637;51.494;11.958;2022-08-19T16:41:25;22.20;91.00
7192;DHT22;3637;51.494;11.958;2022-08-19T16:44:29;22.20;91.00
7192;DHT22;3637;51.494;11.958;2022-08-19T16:47:31;22.20;91.10
7192;DHT22;3637;51.494;11.958;2022-08-19T16:50:33;22.20;91.20
7192;DHT22;3637;51.494;11.958;2022-08-19T16:53:36;22.20;91.20
7192;DHT22;3637;51.494;11.958;2022-08-19T16:56:38;22.20;91.20
7192;DHT22;3637;51.494;11.958;2022-08-19T16:59:41;22.20;91.30
7192;DHT22;3637;51.494;11.958;2022-08-19T17:02:44;22.20;91.20
7192;DHT22;3637;51.494;11.958;2022-08-19T17:05:47;22.20;91.40
7192;DHT22;3637;51.494;11.958;2022-08-19T17:08:51;22.30;91.30
7192;DHT22;3637;51.494;11.958;2022-08-19T17:11:53;22.30;91.10
7192;DHT22;3637;51.494;11.958;2022-08-19T17:14:57;22.20;91.50
7192;DHT22;3637;51.494;11.958;2022-08-19T17:17:59;22.20;91.40
7192;DHT22;3637;51.494;11.958;2022-08-19T17:21:01;22.20;91.40
7192;DHT22;3637;51.494;11.958;2022-08-19T17:24:04;22.20;91.50
7192;DHT22;3637;51.494;11.958;2022-08-19T17:27:08;22.20;91.60
7192;DHT22;3637;51.494;11.958;2022-08-19T17:30:11;22.20;91.60
7192;DHT22;3637;51.494;11.958;2022-08-19T17:33:13;22.20;91.70
7192;DHT22;3637;51.494;11.958;2022-08-19T17:36:16;22.20;92.00
7192;DHT22;3637;51.494;11.958;2022-08-19T17:39:18;22.20;91.90
7192;DHT22;3637;51.494;11.958;2022-08-19T17:42:20;22.20;91.60
7192;DHT22;3637;51.494;11.958;2022-08-19T17:45:23;22.20;91.60
7192;DHT22;3637;51.494;11.958;2022-08-19T17:48:25;22.20;91.70
7192;DHT22;3637;51.494;11.958;2022-08-19T17:51:39;22.20;91.60
7192;DHT22;3637;51.494;11.958;2022-08-19T17:54:41;22.20;91.60
7192;DHT22;3637;51.494;11.958;2022-08-19T17:57:43;22.20;91.90
7192;DHT22;3637;51.494;11.958;2022-08-19T18:00:46;22.10;92.00
7192;DHT22;3637;51.494;11.958;2022-08-19T18:03:48;22.10;92.00
7192;DHT22;3637;51.494;11.958;2022-08-19T18:06:50;22.20;92.00
7192;DHT22;3637;51.494;11.958;2022-08-19T18:09:52;22.10;91.90
7192;DHT22;3637;51.494;11.958;2022-08-19T18:12:54;22.10;92.00
7192;DHT22;3637;51.494;11.958;2022-08-19T18:15:58;22.10;92.50
7192;DHT22;3637;51.494;11.958;2022-08-19T18:18:59;22.10;93.00
7192;DHT22;3637;51.494;11.958;2022-08-19T18:22:02;22.00;93.30
7192;DHT22;3637;51.494;11.958;2022-08-19T18:25:06;22.00;93.60
7192;DHT22;3637;51.494;11.958;2022-08-19T18:28:08;22.00;93.60
7192;DHT22;3637;51.494;11.958;2022-08-19T18:31:12;22.00;93.80
7192;DHT22;3637;51.494;11.958;2022-08-19T18:34:14;22.00;93.70
7192;DHT22;3637;51.494;11.958;2022-08-19T18:37:16;22.00;93.40
7192;DHT22;3637;51.494;11.958;2022-08-19T18:40:20;22.00;93.20
7192;DHT22;3637;51.494;11.958;2022-08-19T18:43:39;22.00;93.20
7192;DHT22;3637;51.494;11.958;2022-08-19T18:47:00;22.00;93.50
7192;DHT22;3637;51.494;11.958;2022-08-19T18:50:20;22.00;93.60
7192;DHT22;3637;51.494;11.958;2022-08-19T18:53:22;21.90;93.80
7192;DHT22;3637;51.494;11.958;2022-08-19T18:56:25;21.90;93.90
7192;DHT22;3637;51.494;11.958;2022-08-19T18:59:31;21.90;94.20
7192;DHT22;3637;51.494;11.958;2022-08-19T19:02:37;21.90;94.20
7192;DHT22;3637;51.494;11.958;2022-08-19T19:05:39;21.90;94.40
7192;DHT22;3637;51.494;11.958;2022-08-19T19:08:41;21.90;94.40
7192;DHT22;3637;51.494;11.958;2022-08-19T19:11:45;21.80;94.70
7192;DHT22;3637;51.494;11.958;2022-08-19T19:14:47;21.80;94.90
7192;DHT22;3637;51.494;11.958;2022-08-19T19:17:50;21.80;95.00
7192;DHT22;3637;51.494;11.958;2022-08-19T19:20:55;21.70;95.00
7192;DHT22;3637;51.494;11.958;2022-08-19T19:23:57;21.80;95.10
7192;DHT22;3637;51.494;11.958;2022-08-19T19:27:01;21.70;95.20
7192;DHT22;3637;51.494;11.958;2022-08-19T19:30:06;21.80;95.30
7192;DHT22;3637;51.494;11.958;2022-08-19T19:33:10;21.70;95.40
7192;DHT22;3637;51.494;11.958;2022-08-19T19:36:12;21.70;95.50
7192;DHT22;3637;51.494;11.958;2022-08-19T19:39:15;21.70;95.50